Time;durP1;ratioP1;P1;durP2;ratioP2;P2;SDS_P1;SDS_P2;PMS_P1;PMS_P2;Temp;Humidity;BMP_temperature;BMP_pressure;BME280_temperature;BME280_humidity;BME280_pressure;Samples;Min_cycle;Max_cycle;Signal;HPM_P1;HPM_P2
2023/07/05 00:00:29;;;;;;;9.70;8.70;;;;;;;19.02;97.13;98342.69;105841;1256;72340;-87
2023/07/05 00:02:56;;;;;;;9.20;8.00;;;;;;;19.01;97.16;98343.56;105736;1253;61041;-86
2023/07/05 00:05:23;;;;;;;8.90;7.90;;;;;;;18.98;97.19;98341.69;105746;1254;61081;-86
2023/07/05 00:07:50;;;;;;;12.00;7.10;;;;;;;18.96;97.41;98347.29;105771;1254;74899;-86
2023/07/05 00:10:18;;;;;;;10.90;7.00;;;;;;;18.94;97.50;98346.23;106078;1256;75466;-86
2023/07/05 00:12:45;;;;;;;8.80;7.20;;;;;;;18.94;97.69;98349.52;105818;1257;73690;-86
2023/07/05 00:15:12;;;;;;;13.90;8.20;;;;;;;18.93;97.78;98347.95;105746;1253;61053;-87
2023/07/05 00:17:40;;;;;;;9.40;8.20;;;;;;;18.93;97.83;98348.72;105887;1253;61158;-86
2023/07/05 00:20:07;;;;;;;9.90;7.40;;;;;;;18.92;97.74;98348.21;105767;1253;72176;-86
2023/07/05 00:22:34;;;;;;;8.40;7.20;;;;;;;18.91;97.69;98341.88;106789;1253;74296;-85
2023/07/05 00:25:01;;;;;;;8.40;7.60;;;;;;;18.89;97.69;98342.38;106903;1257;71583;-84
2023/07/05 00:27:28;;;;;;;8.20;7.40;;;;;;;18.87;97.68;98341.15;106345;1256;61126;-87
2023/07/05 00:29:56;;;;;;;9.10;7.70;;;;;;;18.85;97.77;98343.92;105823;1253;61224;-88
2023/07/05 00:32:22;;;;;;;10.00;8.50;;;;;;;18.83;97.90;98342.52;106100;1256;73103;-88
2023/07/05 00:34:50;;;;;;;10.30;7.90;;;;;;;18.81;97.89;98339.09;105986;1253;74290;-88
2023/07/05 00:37:17;;;;;;;8.40;7.10;;;;;;;18.78;97.74;98336.83;105831;1253;71526;-87
2023/07/05 00:39:44;;;;;;;10.10;7.30;;;;;;;18.76;97.93;98338.05;105907;1257;61993;-86
2023/07/05 00:42:11;;;;;;;10.60;7.00;;;;;;;18.74;98.22;98345.85;106006;1253;61056;-86
2023/07/05 00:44:38;;;;;;;12.20;7.90;;;;;;;18.73;98.34;98344.52;105791;1258;74705;-87
2023/07/05 00:47:19;;;;;;;8.30;7.40;;;;;;;18.72;98.28;98348.44;105867;1259;74069;-86
2023/07/05 00:49:46;;;;;;;10.40;7.90;;;;;;;18.72;98.21;98344.72;105738;1256;71156;-86
2023/07/05 00:52:13;;;;;;;10.10;8.20;;;;;;;18.70;98.09;98343.79;105690;1259;61614;-88
2023/07/05 00:54:44;;;;;;;10.30;7.90;;;;;;;18.69;98.07;98340.41;105957;1256;60968;-88
2023/07/05 00:57:40;;;;;;;8.70;7.50;;;;;;;18.69;98.03;98339.16;105841;1253;73810;-89
2023/07/05 01:00:09;;;;;;;9.60;8.60;;;;;;;18.68;97.78;98339.88;105355;1264;74208;-92
2023/07/05 01:02:39;;;;;;;12.60;8.30;;;;;;;18.66;97.85;98335.75;105473;1260;71865;-86
2023/07/05 01:05:10;;;;;;;10.60;8.40;;;;;;;18.64;97.68;98335.73;105412;1263;61053;-86
2023/07/05 01:07:38;;;;;;;12.60;7.80;;;;;;;18.61;97.65;98337.82;105279;1264;61109;-88
2023/07/05 01:10:09;;;;;;;8.00;7.10;;;;;;;18.59;97.92;98341.69;105314;1265;73838;-88
2023/07/05 01:13:04;;;;;;;8.60;7.80;;;;;;;18.57;97.89;98341.36;105351;1259;73178;-85
2023/07/05 01:15:37;;;;;;;8.40;7.60;;;;;;;18.54;97.90;98338.54;105115;1270;71777;-86
2023/07/05 01:18:08;;;;;;;9.10;7.10;;;;;;;18.53;97.87;98335.27;104975;1270;61179;-86
2023/07/05 01:20:44;;;;;;;12.60;8.20;;;;;;;18.50;97.72;98332.66;104936;1265;61165;-86
2023/07/05 01:23:20;;;;;;;9.90;8.30;;;;;;;18.48;97.72;98330.53;104851;1270;73791;-86
2023/07/05 01:26:13;;;;;;;10.00;7.50;;;;;;;18.45;97.74;98330.79;104890;1270;73116;-89
2023/07/05 01:28:40;;;;;;;10.30;7.30;;;;;;;18.42;97.82;98331.39;104927;1269;70096;-87
2023/07/05 01:31:39;;;;;;;8.50;6.80;;;;;;;18.41;97.99;98331.02;105195;1269;61188;-84
2023/07/05 01:34:27;;;;;;;8.90;7.20;;;;;;;18.39;98.01;98331.39;105007;1269;61928;-84
2023/07/05 01:36:54;;;;;;;12.50;7.20;;;;;;;18.36;98.08;98330.73;105165;1262;73824;-84
2023/07/05 01:39:21;;;;;;;12.20;7.60;;;;;;;18.35;98.01;98335.38;105419;1267;74325;-84
2023/07/05 01:41:49;;;;;;;6.80;6.20;;;;;;;18.34;98.19;98334.27;106782;1265;72722;-85
2023/07/05 01:44:16;;;;;;;8.20;7.40;;;;;;;18.33;98.19;98336.04;106887;1261;59832;-86
2023/07/05 01:47:02;;;;;;;9.70;8.20;;;;;;;18.32;98.15;98338.65;107003;1260;61105;-85
2023/07/05 01:49:41;;;;;;;9.00;7.40;;;;;;;18.29;98.06;98337.27;106775;1264;73979;-92
2023/07/05 01:52:16;;;;;;;7.70;6.90;;;;;;;18.27;98.04;98339.52;106728;1253;73178;-85
2023/07/05 01:55:07;;;;;;;10.20;6.90;;;;;;;18.26;97.97;98344.02;107416;1256;73816;-93
2023/07/05 01:57:39;;;;;;;8.00;7.10;;;;;;;18.23;98.04;98343.94;107495;1257;61161;-89
2023/07/05 02:00:08;;;;;;;6.90;6.10;;;;;;;18.22;98.19;98340.56;107480;1253;61167;-87
2023/07/05 02:02:41;;;;;;;6.70;6.10;;;;;;;18.21;97.88;98338.50;107689;1254;73843;-86
2023/07/05 02:05:10;;;;;;;7.00;5.80;;;;;;;18.19;97.55;98338.84;107830;1253;72977;-88
2023/07/05 02:07:37;;;;;;;8.90;6.20;;;;;;;18.18;97.28;98337.04;107329;1255;72547;-88
2023/07/05 02:10:06;;;;;;;8.10;5.80;;;;;;;18.16;97.23;98333.09;107371;1253;61166;-87
2023/07/05 02:12:33;;;;;;;6.90;6.20;;;;;;;18.13;97.11;98333.69;107479;1257;61013;-87
2023/07/05 02:15:00;;;;;;;10.20;5.60;;;;;;;18.12;97.18;98332.23;106345;1259;72628;-84
2023/07/05 02:17:28;;;;;;;9.10;6.00;;;;;;;18.10;97.01;98331.70;105909;1256;74293;-89
2023/07/05 02:19:55;;;;;;;10.70;6.10;;;;;;;18.06;96.89;98332.54;105826;1257;70420;-86
2023/07/05 02:22:22;;;;;;;6.40;5.80;;;;;;;18.01;96.76;98336.27;105962;1253;61029;-87
2023/07/05 02:24:52;;;;;;;13.10;5.30;;;;;;;17.98;96.51;98341.70;105868;1256;61049;-89
2023/07/05 02:27:19;;;;;;;5.60;4.70;;;;;;;17.94;96.55;98344.31;105782;1256;72890;-86
2023/07/05 02:29:46;;;;;;;9.40;5.30;;;;;;;17.91;96.52;98345.36;105830;1259;74124;-92
2023/07/05 02:32:13;;;;;;;8.30;4.80;;;;;;;17.86;96.25;98347.91;106613;1255;71207;-86
2023/07/05 02:34:40;;;;;;;5.00;4.50;;;;;;;17.82;96.25;98350.23;107885;1254;60371;-85
2023/07/05 02:37:08;;;;;;;4.80;3.90;;;;;;;17.77;96.50;98351.81;106024;1253;61181;-86
2023/07/05 02:39:35;;;;;;;4.70;4.30;;;;;;;17.75;96.69;98351.30;105929;1254;73542;-86
2023/07/05 02:42:06;;;;;;;6.70;5.00;;;;;;;17.72;96.77;98350.30;105811;1266;74401;-86
2023/07/05 02:44:34;;;;;;;6.30;4.30;;;;;;;17.70;96.93;98346.28;106478;1259;71712;-87
2023/07/05 02:47:01;;;;;;;5.40;4.80;;;;;;;17.68;97.15;98347.31;106987;1253;61040;-87
2023/07/05 02:49:28;;;;;;;5.70;5.20;;;;;;;17.68;97.15;98349.55;109568;1254;60829;-83
2023/07/05 02:51:56;;;;;;;7.90;4.80;;;;;;;17.68;97.20;98352.58;109012;1252;72408;-85
2023/07/05 02:54:23;;;;;;;6.00;5.40;;;;;;;17.69;97.12;98353.78;107007;1257;73118;-86
2023/07/05 02:56:50;;;;;;;5.40;4.50;;;;;;;17.69;97.00;98355.21;106673;1257;72732;-87
2023/07/05 02:59:17;;;;;;;6.20;4.30;;;;;;;17.69;97.01;98350.86;106080;1257;61154;-89
2023/07/05 03:01:44;;;;;;;6.80;4.60;;;;;;;17.68;97.17;98348.77;105754;1254;61094;-87
2023/07/05 03:04:13;;;;;;;4.70;4.10;;;;;;;17.68;97.33;98344.63;105791;1266;72303;-88
2023/07/05 03:06:41;;;;;;;4.10;3.60;;;;;;;17.68;97.47;98344.86;105830;1254;74403;-86
2023/07/05 03:09:08;;;;;;;4.20;3.40;;;;;;;17.68;97.52;98348.80;105748;1266;72471;-85
2023/07/05 03:11:36;;;;;;;5.10;3.60;;;;;;;17.67;97.47;98348.16;105741;1259;63083;-85
2023/07/05 03:14:03;;;;;;;4.20;3.80;;;;;;;17.67;97.63;98350.71;105768;1257;61158;-86
2023/07/05 03:16:30;;;;;;;4.30;3.90;;;;;;;17.66;97.53;98352.83;105779;1259;73707;-86
2023/07/05 03:18:57;;;;;;;4.00;3.60;;;;;;;17.64;97.67;98348.66;105731;1259;74017;-85
2023/07/05 03:21:24;;;;;;;4.10;3.80;;;;;;;17.62;97.89;98350.15;105766;1256;71106;-86
2023/07/05 03:23:51;;;;;;;4.80;4.40;;;;;;;17.62;98.04;98347.99;105752;1256;61269;-86
2023/07/05 03:26:18;;;;;;;4.80;4.20;;;;;;;17.62;98.10;98346.68;105673;1260;61271;-86
2023/07/05 03:28:45;;;;;;;4.90;4.40;;;;;;;17.64;98.28;98350.36;105689;1260;73750;-86
2023/07/05 03:31:14;;;;;;;8.10;4.00;;;;;;;17.65;98.59;98352.34;105865;1257;72991;-86
2023/07/05 03:33:41;;;;;;;6.20;4.90;;;;;;;17.69;98.57;98356.55;105788;1254;72635;-86
2023/07/05 03:36:14;;;;;;;7.00;4.90;;;;;;;17.69;98.26;98353.67;105730;1254;60988;-87
2023/07/05 03:38:41;;;;;;;7.50;4.40;;;;;;;17.67;98.41;98357.55;105764;1256;61155;-86
2023/07/05 03:41:13;;;;;;;5.50;4.10;;;;;;;17.66;98.42;98358.27;105716;1257;72564;-87
2023/07/05 03:43:43;;;;;;;5.70;3.60;;;;;;;17.64;98.47;98359.91;105831;1257;74561;-86
2023/07/05 03:46:11;;;;;;;8.00;6.10;;;;;;;17.64;98.61;98359.76;105934;1256;71355;-86
2023/07/05 03:48:40;;;;;;;24.60;17.60;;;;;;;17.65;98.96;98360.92;105807;1255;62615;-87
2023/07/05 03:51:12;;;;;;;22.00;16.20;;;;;;;17.67;99.35;98366.34;105804;1257;61199;-88
2023/07/05 03:53:40;;;;;;;15.40;11.80;;;;;;;17.70;99.55;98368.73;105727;1257;73750;-87
2023/07/05 03:56:08;;;;;;;7.20;6.40;;;;;;;17.74;99.39;98374.90;105802;1257;74913;-87
2023/07/05 03:58:36;;;;;;;5.60;5.00;;;;;;;17.76;99.31;98377.74;105948;1256;72461;-87
2023/07/05 04:01:08;;;;;;;9.30;8.00;;;;;;;17.79;99.57;98380.19;105835;1257;61069;-87
2023/07/05 04:03:35;;;;;;;54.50;37.60;;;;;;;17.80;99.41;98377.34;105751;1267;61142;-89
2023/07/05 04:06:03;;;;;;;51.80;35.90;;;;;;;17.81;99.36;98377.11;105831;1254;73678;-88
2023/07/05 04:08:30;;;;;;;41.80;29.50;;;;;;;17.81;99.38;98375.48;105831;1256;74407;-89
2023/07/05 04:10:57;;;;;;;41.10;29.90;;;;;;;17.81;99.53;98372.56;105808;1254;72625;-86
2023/07/05 04:13:24;;;;;;;33.80;24.40;;;;;;;17.83;99.86;98371.59;105924;1256;61096;-86
2023/07/05 04:15:59;;;;;;;21.70;17.10;;;;;;;17.87;100.00;98373.99;105806;1258;61159;-87
2023/07/05 04:18:28;;;;;;;21.30;16.20;;;;;;;17.91;100.00;98372.88;106210;1256;73846;-87
2023/07/05 04:20:56;;;;;;;19.20;16.70;;;;;;;17.96;100.00;98374.90;106388;1256;74010;-86
2023/07/05 04:23:23;;;;;;;19.50;17.40;;;;;;;18.00;100.00;98373.54;106062;1255;73321;-87
2023/07/05 04:25:59;;;;;;;21.90;19.80;;;;;;;18.04;100.00;98375.29;105820;1257;61132;-89
2023/07/05 04:28:27;;;;;;;21.00;19.10;;;;;;;18.11;100.00;98377.56;105779;1257;61186;-87
2023/07/05 04:30:54;;;;;;;14.80;13.40;;;;;;;18.17;100.00;98379.91;106198;1256;72559;-88
2023/07/05 04:33:21;;;;;;;12.00;9.90;;;;;;;18.22;100.00;98378.64;105858;1266;73030;-88
2023/07/05 04:35:49;;;;;;;7.90;7.10;;;;;;;18.28;100.00;98382.05;105794;1257;72901;-92
2023/07/05 04:38:16;;;;;;;9.10;7.20;;;;;;;18.32;100.00;98380.65;106190;1254;62993;-88
2023/07/05 04:40:44;;;;;;;9.30;7.00;;;;;;;18.38;100.00;98383.69;105667;1257;61124;-91
2023/07/05 04:43:11;;;;;;;8.00;7.30;;;;;;;18.43;100.00;98386.86;105808;1258;73415;-88
2023/07/05 04:45:50;;;;;;;9.00;8.20;;;;;;;18.48;100.00;98391.02;106081;1254;74288;-90
2023/07/05 04:48:17;;;;;;;8.60;7.70;;;;;;;18.54;100.00;98389.94;105788;1258;73710;-89
2023/07/05 04:50:47;;;;;;;15.00;7.40;;;;;;;18.58;100.00;98389.69;105847;1257;61927;-88
2023/07/05 04:53:14;;;;;;;8.60;7.30;;;;;;;18.63;100.00;98387.48;105718;1253;61051;-87
2023/07/05 04:55:45;;;;;;;8.90;7.20;;;;;;;18.68;100.00;98385.84;105755;1254;72759;-89
2023/07/05 04:58:20;;;;;;;9.30;7.50;;;;;;;18.74;100.00;98385.61;106374;1256;72955;-87
2023/07/05 05:00:51;;;;;;;10.10;7.30;;;;;;;18.80;100.00;98385.19;105906;1254;72561;-88
2023/07/05 05:03:21;;;;;;;9.50;7.30;;;;;;;18.85;100.00;98383.25;105754;1254;61313;-86
2023/07/05 05:05:53;;;;;;;10.80;8.20;;;;;;;18.91;100.00;98386.98;105858;1257;61144;-87
2023/07/05 05:08:20;;;;;;;10.50;8.50;;;;;;;18.98;100.00;98391.02;105803;1256;72231;-86
2023/07/05 05:10:54;;;;;;;9.20;8.40;;;;;;;19.04;99.96;98388.70;105745;1258;74205;-87
2023/07/05 05:14:17;;;;;;;;;;;;;;;;;;;;;
2023/07/05 05:18:26;;;;;;;12.20;9.40;;;;;;;19.24;99.15;98383.06;105442;1257;61188;-85
2023/07/05 05:22:47;;;;;;;9.30;8.20;;;;;;;19.36;98.64;98377.62;105054;1264;61672;-86
2023/07/05 05:25:36;;;;;;;8.90;8.10;;;;;;;19.45;98.04;98372.61;104863;1271;74839;-85
2023/07/05 05:28:08;;;;;;;9.20;7.30;;;;;;;19.51;97.77;98369.09;104847;1267;75632;-85
2023/07/05 05:30:47;;;;;;;9.40;8.60;;;;;;;19.59;97.67;98362.08;104792;1267;72741;-85
2023/07/05 05:33:17;;;;;;;10.40;8.90;;;;;;;19.67;97.46;98363.39;105831;1270;61551;-87
2023/07/05 05:35:47;;;;;;;16.50;11.40;;;;;;;19.73;97.39;98362.56;104692;1273;61304;-87
2023/07/05 05:38:18;;;;;;;11.60;10.50;;;;;;;19.79;97.32;98370.08;104581;1273;73529;-86
2023/07/05 05:40:48;;;;;;;11.00;9.80;;;;;;;19.86;96.96;98364.81;104642;1273;73615;-85
2023/07/05 05:43:17;;;;;;;10.50;9.50;;;;;;;19.92;96.90;98362.02;104647;1274;71322;-85
2023/07/05 05:45:44;;;;;;;12.80;10.50;;;;;;;19.98;97.01;98363.54;104768;1273;61265;-84
2023/07/05 05:48:10;;;;;;;13.70;12.20;;;;;;;20.03;96.70;98363.69;104753;1270;61178;-82
2023/07/05 05:50:39;;;;;;;14.60;13.10;;;;;;;20.09;96.46;98367.24;105168;1270;73815;-86
2023/07/05 05:53:11;;;;;;;16.00;14.30;;;;;;;20.15;96.34;98369.33;105181;1265;75556;-84
2023/07/05 05:55:39;;;;;;;13.40;11.60;;;;;;;20.20;96.40;98367.05;105236;1264;72638;-85
2023/07/05 05:58:06;;;;;;;21.00;13.30;;;;;;;20.27;96.48;98365.08;105292;1264;61245;-85
2023/07/05 06:00:33;;;;;;;15.20;13.10;;;;;;;20.34;96.54;98366.15;105270;1259;61042;-85
2023/07/05 06:03:01;;;;;;;15.20;13.20;;;;;;;20.41;96.63;98365.73;105675;1257;72545;-85
2023/07/05 06:05:29;;;;;;;16.40;13.50;;;;;;;20.48;96.67;98365.91;106202;1254;72806;-85
2023/07/05 06:11:31;;;;;;;18.60;11.40;;;;;;;20.67;96.82;98368.38;105357;1264;62671;-84
2023/07/05 06:13:59;;;;;;;12.90;11.50;;;;;;;20.74;96.88;98372.98;105236;1261;61203;-85
2023/07/05 06:16:26;;;;;;;13.40;10.70;;;;;;;20.82;96.90;98367.75;105246;1263;76028;-84
2023/07/05 06:18:54;;;;;;;12.90;11.40;;;;;;;20.89;96.61;98367.30;105837;1262;74630;-84
2023/07/05 06:21:21;;;;;;;11.90;10.70;;;;;;;20.97;96.76;98366.30;105219;1264;72773;-85
2023/07/05 06:23:56;;;;;;;12.70;10.60;;;;;;;21.05;96.79;98364.68;105925;1259;61049;-84
2023/07/05 06:26:23;;;;;;;11.10;8.80;;;;;;;21.12;96.77;98361.45;108551;1260;61053;-84
2023/07/05 06:28:57;;;;;;;10.50;9.50;;;;;;;21.20;96.12;98358.18;107959;1266;73105;-83
2023/07/05 06:31:32;;;;;;;11.70;10.30;;;;;;;21.27;94.52;98352.85;105695;1266;73204;-84
2023/07/05 06:34:18;;;;;;;;;;;;;;;;;;;;;
2023/07/05 06:37:17;;;;;;;10.70;9.60;;;;;;;21.43;93.29;98345.88;105736;1257;61064;-84
2023/07/05 06:39:44;;;;;;;11.80;10.20;;;;;;;21.49;93.24;98344.89;105394;1262;61180;-84
2023/07/05 06:42:11;;;;;;;13.20;9.80;;;;;;;21.55;93.02;98341.11;105408;1258;72621;-84
2023/07/05 06:44:40;;;;;;;11.30;10.20;;;;;;;21.61;93.17;98344.70;105451;1257;75479;-85
2023/07/05 06:47:10;;;;;;;19.20;14.80;;;;;;;21.69;92.84;98338.83;106932;1261;71368;-86
2023/07/05 06:49:37;;;;;;;12.20;10.70;;;;;;;21.74;92.06;98337.64;105888;1264;61108;-84
2023/07/05 06:52:07;;;;;;;12.20;10.90;;;;;;;21.81;91.86;98338.13;106759;1257;61111;-83
2023/07/05 06:54:38;;;;;;;13.40;10.00;;;;;;;21.87;91.69;98337.35;106449;1261;74575;-84
2023/07/05 06:57:06;;;;;;;16.30;9.90;;;;;;;21.94;91.30;98334.95;105557;1262;74487;-84
2023/07/05 06:59:34;;;;;;;12.50;9.70;;;;;;;22.00;91.43;98333.10;105596;1260;73503;-84
2023/07/05 07:02:01;;;;;;;11.00;9.70;;;;;;;22.07;91.12;98334.77;105368;1257;61248;-84
2023/07/05 07:04:41;;;;;;;11.50;10.40;;;;;;;22.12;90.94;98332.84;105503;1260;61174;-85
2023/07/05 07:07:20;;;;;;;11.00;9.90;;;;;;;22.18;90.33;98327.54;105632;1257;74866;-84
2023/07/05 07:09:48;;;;;;;10.40;9.20;;;;;;;22.23;89.53;98327.87;105333;1257;74523;-83
2023/07/05 07:12:18;;;;;;;12.30;9.50;;;;;;;22.28;88.85;98327.44;105973;1258;72378;-85
2023/07/05 07:14:51;;;;;;;12.70;10.40;;;;;;;22.34;88.54;98334.63;105578;1257;61228;-84
2023/07/05 07:17:19;;;;;;;18.30;12.50;;;;;;;22.40;87.95;98333.38;105978;1258;61553;-84
2023/07/05 07:19:50;;;;;;;13.20;10.70;;;;;;;22.45;87.53;98334.60;105758;1257;73663;-84
2023/07/05 07:22:25;;;;;;;13.10;10.70;;;;;;;22.50;86.71;98337.61;105450;1257;74388;-86
2023/07/05 07:24:52;;;;;;;10.70;9.60;;;;;;;22.55;85.56;98335.77;105661;1257;71813;-85
2023/07/05 07:27:20;;;;;;;10.70;9.00;;;;;;;22.59;84.87;98342.59;105355;1261;61197;-84
2023/07/05 07:29:47;;;;;;;11.40;9.50;;;;;;;22.63;83.91;98348.16;105426;1261;61224;-83
2023/07/05 07:32:15;;;;;;;10.90;9.70;;;;;;;22.66;83.77;98345.54;106226;1261;73829;-84
2023/07/05 07:34:42;;;;;;;10.30;9.30;;;;;;;22.70;84.00;98346.22;106860;1257;73138;-83
2023/07/05 07:37:09;;;;;;;11.00;8.30;;;;;;;22.75;84.08;98348.67;105486;1257;71688;-83
2023/07/05 07:39:38;;;;;;;10.30;9.10;;;;;;;22.81;83.34;98349.64;105750;1258;61012;-83
2023/07/05 07:42:06;;;;;;;11.10;9.90;;;;;;;22.87;82.50;98349.61;105517;1257;61179;-84
2023/07/05 07:44:34;;;;;;;10.50;9.40;;;;;;;22.94;82.73;98350.98;105444;1261;73765;-84
2023/07/05 07:47:02;;;;;;;11.50;10.40;;;;;;;23.00;82.51;98348.17;105426;1261;74313;-85
2023/07/05 07:49:29;;;;;;;11.90;10.40;;;;;;;23.06;82.12;98345.86;105241;1263;71808;-84
2023/07/05 07:51:57;;;;;;;11.50;9.50;;;;;;;23.11;81.48;98347.85;105516;1258;61144;-83
2023/07/05 07:54:31;;;;;;;13.10;9.70;;;;;;;23.16;80.60;98345.54;106107;1257;61100;-82
2023/07/05 07:57:00;;;;;;;11.70;8.70;;;;;;;23.23;80.65;98345.80;105474;1264;73813;-85
2023/07/05 07:59:28;;;;;;;12.50;10.20;;;;;;;23.30;80.27;98347.13;105669;1261;73225;-86
2023/07/05 08:01:58;;;;;;;11.10;10.10;;;;;;;23.37;78.72;98349.33;105283;1263;73244;-84
2023/07/05 08:04:28;;;;;;;11.60;10.40;;;;;;;23.43;77.94;98348.95;105390;1258;61485;-83
2023/07/05 08:06:58;;;;;;;16.30;10.80;;;;;;;23.51;77.56;98342.63;105563;1261;61118;-85
2023/07/05 08:09:28;;;;;;;10.80;9.80;;;;;;;23.57;77.25;98341.86;105742;1257;72622;-84
2023/07/05 08:11:56;;;;;;;12.40;9.70;;;;;;;23.63;77.12;98338.90;105460;1257;74084;-88
2023/07/05 08:14:25;;;;;;;15.00;9.30;;;;;;;23.69;77.28;98339.95;105374;1258;72638;-84
2023/07/05 08:16:53;;;;;;;13.50;9.70;;;;;;;23.77;76.89;98342.78;106751;1258;61111;-85
2023/07/05 08:19:20;;;;;;;11.30;9.10;;;;;;;23.85;75.98;98343.88;105456;1261;61160;-87
2023/07/05 08:21:48;;;;;;;12.30;9.70;;;;;;;23.93;74.74;98343.56;105357;1257;73163;-88
2023/07/05 08:24:20;;;;;;;13.70;9.20;;;;;;;24.02;74.20;98345.17;106010;1261;74360;-84
2023/07/05 08:26:54;;;;;;;12.70;10.10;;;;;;;24.10;73.39;98348.59;106701;1257;71233;-84
2023/07/05 08:29:22;;;;;;;13.20;9.10;;;;;;;24.18;72.78;98351.08;106816;1258;61204;-84
2023/07/05 08:31:50;;;;;;;12.50;9.80;;;;;;;24.27;72.86;98349.36;106432;1259;61131;-86
2023/07/05 08:34:17;;;;;;;12.80;9.70;;;;;;;24.35;71.91;98353.24;105673;1264;73715;-85
2023/07/05 08:36:46;;;;;;;10.40;9.20;;;;;;;24.42;70.32;98355.98;106016;1257;74711;-84
2023/07/05 08:39:14;;;;;;;11.00;9.40;;;;;;;24.49;69.51;98351.42;105725;1258;73986;-85
2023/07/05 08:41:51;;;;;;;11.90;10.00;;;;;;;24.55;69.60;98346.64;105686;1258;61736;-83
2023/07/05 08:44:27;;;;;;;12.70;9.40;;;;;;;24.62;69.45;98348.08;105857;1261;61246;-84
2023/07/05 08:47:02;;;;;;;12.80;10.30;;;;;;;24.68;67.84;98350.48;107012;1258;73584;-84
2023/07/05 08:49:41;;;;;;;13.60;9.30;;;;;;;24.73;67.21;98352.59;106542;1257;73014;-84
2023/07/05 08:52:31;;;;;;;18.90;10.80;;;;;;;24.78;67.07;98353.48;105889;1258;71436;-84
2023/07/05 08:55:00;;;;;;;12.50;9.40;;;;;;;24.83;67.25;98347.61;105606;1257;61172;-85
2023/07/05 08:57:33;;;;;;;18.00;9.70;;;;;;;24.88;67.37;98351.06;106891;1261;61018;-85
2023/07/05 09:00:15;;;;;;;18.60;10.00;;;;;;;24.94;66.65;98346.09;107615;1257;72939;-87
2023/07/05 09:02:43;;;;;;;20.40;11.20;;;;;;;25.00;65.09;98341.64;107662;1256;73539;-85
2023/07/05 09:05:21;;;;;;;17.90;10.40;;;;;;;25.07;65.26;98340.52;106251;1257;71332;-87
2023/07/05 09:08:05;;;;;;;30.60;11.50;;;;;;;25.15;65.92;98334.35;105965;1257;61077;-89
2023/07/05 09:10:44;;;;;;;17.70;10.60;;;;;;;25.25;65.22;98333.60;105711;1257;61103;-88
2023/07/05 09:13:40;;;;;;;24.40;10.70;;;;;;;25.34;64.34;98332.63;106284;1257;74047;-88
2023/07/05 09:17:22;;;;;;;17.60;9.60;;;;;;;25.46;64.21;98327.19;107510;1257;73765;-88
2023/07/05 09:20:54;;;;;;;16.90;8.90;;;;;;;25.61;65.63;98321.27;107917;1257;71743;-87
2023/07/05 09:23:55;;;;;;;17.70;10.70;;;;;;;25.75;64.98;98316.57;108196;1257;60386;-90
2023/07/05 09:26:31;;;;;;;17.10;9.70;;;;;;;25.88;62.72;98318.98;106544;1257;61063;-88
2023/07/05 09:29:27;;;;;;;13.00;9.20;;;;;;;26.02;63.11;98314.52;106550;1261;73167;-87
2023/07/05 09:31:54;;;;;;;12.50;8.00;;;;;;;26.14;62.41;98313.27;106487;1256;75262;-89
2023/07/05 09:34:45;;;;;;;19.20;9.50;;;;;;;26.24;62.26;98309.56;106099;1257;74390;-87
2023/07/05 09:37:18;;;;;;;18.30;9.70;;;;;;;26.36;61.28;98306.40;105504;1257;61127;-88
2023/07/05 09:40:17;;;;;;;16.60;9.60;;;;;;;26.44;60.69;98308.90;105742;1262;61150;-88
2023/07/05 09:42:58;;;;;;;19.50;8.90;;;;;;;26.57;61.74;98306.02;105118;1265;74453;-87
2023/07/05 09:45:26;;;;;;;13.30;9.20;;;;;;;26.68;61.62;98305.03;105189;1262;74264;-87
2023/07/05 09:48:06;;;;;;;17.10;9.10;;;;;;;26.80;61.54;98299.40;106706;1267;72337;-87
2023/07/05 09:51:03;;;;;;;27.70;10.20;;;;;;;26.95;61.05;98297.46;107433;1261;60436;-88
2023/07/05 09:53:41;;;;;;;26.80;11.20;;;;;;;27.07;58.19;98294.94;108487;1263;60883;-87
2023/07/05 09:56:27;;;;;;;24.50;10.50;;;;;;;27.16;56.95;98293.64;106504;1268;73175;-88
2023/07/05 09:59:15;;;;;;;18.30;9.80;;;;;;;27.26;56.54;98300.80;105765;1258;75106;-88
2023/07/05 10:02:20;;;;;;;23.50;11.20;;;;;;;27.35;56.54;98296.84;105713;1264;72805;-87
2023/07/05 10:05:15;;;;;;;25.00;11.60;;;;;;;27.50;56.42;98291.91;105452;1257;61202;-85
2023/07/05 10:08:15;;;;;;;26.60;10.80;;;;;;;27.62;56.22;98289.65;105467;1258;61079;-83
2023/07/05 10:11:19;;;;;;;19.70;9.90;;;;;;;27.78;57.09;98283.84;107600;1256;73911;-88
2023/07/05 10:14:05;;;;;;;23.40;9.90;;;;;;;27.93;55.90;98289.92;108638;1263;72932;-88
2023/07/05 10:16:54;;;;;;;23.20;9.90;;;;;;;28.07;54.70;98282.86;108415;1264;72483;-87
2023/07/05 10:19:49;;;;;;;22.30;8.80;;;;;;;28.22;54.76;98282.32;106060;1267;61109;-86
2023/07/05 10:22:29;;;;;;;24.70;10.00;;;;;;;28.40;54.31;98280.23;105882;1266;61253;-86
2023/07/05 10:24:57;;;;;;;20.20;9.70;;;;;;;28.57;53.41;98279.52;105442;1269;72670;-86
2023/07/05 10:27:35;;;;;;;22.40;9.40;;;;;;;28.67;52.07;98277.28;105284;1264;74352;-88
2023/07/05 10:30:04;;;;;;;24.60;9.90;;;;;;;28.79;51.17;98275.34;105104;1264;73825;-88
2023/07/05 10:32:38;;;;;;;11.90;7.60;;;;;;;28.90;51.60;98283.87;104757;1266;61772;-86
2023/07/05 10:35:21;;;;;;;19.80;9.60;;;;;;;29.01;52.37;98279.12;105213;1264;61351;-85
2023/07/05 10:37:48;;;;;;;;;;;;;;;29.14;50.94;98272.86;105128;1264;73886;-86
2023/07/05 10:40:17;;;;;;;15.70;9.50;;;;;;;29.26;50.45;98280.02;105086;1265;73621;-87
2023/07/05 10:42:50;;;;;;;14.10;8.50;;;;;;;29.39;50.64;98269.36;105072;1264;72592;-87
2023/07/05 10:45:21;;;;;;;18.40;8.70;;;;;;;29.55;49.65;98263.63;105877;1264;61077;-87
2023/07/05 10:48:01;;;;;;;11.60;8.10;;;;;;;29.70;49.22;98254.24;107067;1269;61162;-88
2023/07/05 10:50:32;;;;;;;18.60;10.40;;;;;;;29.84;48.62;98256.67;105888;1268;72730;-90
2023/07/05 10:53:12;;;;;;;9.80;8.20;;;;;;;29.97;47.29;98258.27;105830;1262;74559;-85
2023/07/05 10:56:12;;;;;;;9.30;7.40;;;;;;;30.08;46.38;98255.86;105429;1265;75384;-87
2023/07/05 10:59:18;;;;;;;10.90;8.10;;;;;;;30.22;46.45;98257.23;105575;1257;61651;-88
2023/07/05 11:02:26;;;;;;;14.90;7.60;;;;;;;30.36;46.57;98261.65;105520;1264;61419;-87
2023/07/05 11:05:38;;;;;;;15.60;8.20;;;;;;;30.52;46.76;98256.42;105674;1257;73671;-88
2023/07/05 11:08:31;;;;;;;11.30;8.00;;;;;;;30.75;46.93;98254.19;105869;1257;74535;-87
2023/07/05 11:11:00;;;;;;;22.80;13.90;;;;;;;30.91;45.92;98253.67;106123;1257;71806;-83
2023/07/05 11:13:30;;;;;;;10.60;8.20;;;;;;;31.05;45.48;98250.67;105358;1258;61047;-83
2023/07/05 11:15:57;;;;;;;8.50;7.60;;;;;;;31.10;45.93;98250.63;105511;1258;61111;-83
2023/07/05 11:18:30;;;;;;;13.30;7.80;;;;;;;31.21;45.75;98251.02;105248;1265;72715;-86
2023/07/05 11:20:59;;;;;;;12.50;7.50;;;;;;;31.30;45.65;98249.14;105566;1259;75544;-85
2023/07/05 11:23:43;;;;;;;8.80;5.80;;;;;;;31.43;45.21;98249.66;105464;1257;72478;-85
2023/07/05 11:26:11;;;;;;;10.70;7.50;;;;;;;31.53;44.14;98250.07;105406;1258;61133;-85
2023/07/05 11:28:47;;;;;;;8.60;6.90;;;;;;;31.59;43.70;98247.21;105520;1257;61106;-86
2023/07/05 11:31:28;;;;;;;10.60;7.00;;;;;;;31.68;42.93;98237.95;105881;1257;74871;-85
2023/07/05 11:34:21;;;;;;;9.30;7.40;;;;;;;31.77;43.87;98233.88;105497;1258;73448;-87
2023/07/05 11:36:51;;;;;;;10.30;7.60;;;;;;;31.93;43.69;98233.48;105286;1257;72302;-86
2023/07/05 11:39:50;;;;;;;11.70;7.20;;;;;;;32.02;43.73;98231.37;108139;1257;61399;-90
2023/07/05 11:43:40;;;;;;;14.70;6.70;;;;;;;32.16;42.85;98227.75;106855;1261;61089;-85
2023/07/05 11:46:42;;;;;;;8.70;7.20;;;;;;;32.33;43.47;98226.71;107943;1266;72809;-85
2023/07/05 11:50:16;;;;;;;9.10;6.80;;;;;;;32.59;42.62;98219.40;107051;1266;74161;-87
2023/07/05 11:52:58;;;;;;;7.80;7.00;;;;;;;32.80;41.77;98225.27;105352;1267;72724;-86
2023/07/05 11:55:33;;;;;;;9.50;7.30;;;;;;;32.91;41.78;98221.96;105620;1266;61125;-88
2023/07/05 11:58:30;;;;;;;8.90;7.40;;;;;;;33.03;40.90;98219.24;106402;1265;61208;-88